Time,TemperatureF,DewpointF,PressureIn,WindDirection,WindDirectionDegrees,WindSpeedMPH,WindSpeedGustMPH,Humidity,HourlyPrecipIn,Conditions,Clouds,dailyrainin,SoftwareType,DateUTC
2013-05-06 00:09:00,55.5,50.0,29.83,SSE,150,0.0,3.0,81,0.00,,,0.00,weatherlink.com 1.10,2013-05-06 07:09:00,
2013-05-06 00:24:00,56.1,50.0,29.83,SSE,160,0.0,5.0,79,0.00,,,0.00,weatherlink.com 1.10,2013-05-06 07:24:00,
2013-05-06 00:39:00,56.4,50.0,29.84,SSE,167,3.0,3.0,78,0.00,,,0.00,weatherlink.com 1.10,2013-05-06 07:39:00,
2013-05-06 00:54:00,56.5,50.0,29.84,SSE,164,1.0,7.0,78,0.00,,,0.00,weatherlink.com 1.10,2013-05-06 07:54:00,
2013-05-06 01:09:00,56.4,50.0,29.84,SSE,161,0.0,1.0,79,0.00,,,0.00,weatherlink.com 1.10,2013-05-06 08:09:00,
2013-05-06 01:24:00,56.2,50.0,29.84,SSE,161,0.0,2.0,79,0.00,,,0.00,weatherlink.com 1.10,2013-05-06 08:24:00,
2013-05-06 01:39:00,55.9,50.0,29.84,SSE,161,1.0,3.0,79,0.00,,,0.00,weatherlink.com 1.10,2013-05-06 08:39:00,
2013-05-06 01:54:00,55.1,49.0,29.84,SSE,161,0.0,1.0,80,0.00,,,0.00,weatherlink.com 1.10,2013-05-06 08:54:00,
2013-05-06 02:09:00,54.4,49.0,29.84,SSE,161,0.0,0.0,81,0.00,,,0.00,weatherlink.com 1.10,2013-05-06 09:09:00,
2013-05-06 02:24:00,54.1,49.0,29.84,SSW,195,0.0,3.0,83,0.00,,,0.00,weatherlink.com 1.10,2013-05-06 09:24:00,
2013-05-06 02:39:00,53.9,49.0,29.83,SSW,195,0.0,1.0,83,0.00,,,0.00,weatherlink.com 1.10,2013-05-06 09:39:00,
2013-05-06 02:54:00,53.7,49.0,29.83,SSW,195,0.0,1.0,84,0.00,,,0.00,weatherlink.com 1.10,2013-05-06 09:54:00,
2013-05-06 03:09:00,53.7,49.0,29.83,SSW,195,0.0,1.0,85,0.00,,,0.00,weatherlink.com 1.10,2013-05-06 10:09:00,
2013-05-06 03:24:00,53.4,49.0,29.83,SSW,195,0.0,0.0,85,0.00,,,0.00,weatherlink.com 1.10,2013-05-06 10:24:00,
2013-05-06 03:39:00,53.3,49.0,29.83,SSW,195,0.0,0.0,86,0.00,,,0.00,weatherlink.com 1.10,2013-05-06 10:39:00,
2013-05-06 03:54:00,53.1,49.0,29.83,SSW,195,0.0,0.0,86,0.00,,,0.00,weatherlink.com 1.10,2013-05-06 10:54:00,
2013-05-06 04:09:00,52.4,49.0,29.83,SW,219,0.0,1.0,87,0.00,,,0.00,weatherlink.com 1.10,2013-05-06 11:09:00,
2013-05-06 04:24:00,52.2,49.0,29.83,SSW,212,0.0,1.0,87,0.00,,,0.00,weatherlink.com 1.10,2013-05-06 11:24:00,
2013-05-06 04:39:00,51.7,48.0,29.82,West,278,0.0,1.0,87,0.00,,,0.00,weatherlink.com 1.10,2013-05-06 11:39:00,
2013-05-06 04:54:00,50.8,47.0,29.82,West,278,0.0,0.0,87,0.00,,,0.00,weatherlink.com 1.10,2013-05-06 11:54:00,
2013-05-06 05:09:00,49.9,47.0,29.82,West,278,0.0,0.0,88,0.00,,,0.00,weatherlink.com 1.10,2013-05-06 12:09:00,
2013-05-06 05:24:00,48.9,46.0,29.82,West,278,0.0,1.0,89,0.00,,,0.00,weatherlink.com 1.10,2013-05-06 12:24:00,
2013-05-06 05:39:00,48.5,46.0,29.82,West,278,0.0,0.0,90,0.00,,,0.00,weatherlink.com 1.10,2013-05-06 12:39:00,
2013-05-06 05:54:00,48.4,46.0,29.82,West,278,0.0,2.0,92,0.00,,,0.00,weatherlink.com 1.10,2013-05-06 12:54:00,
2013-05-06 06:09:00,49.3,47.0,29.82,WNW,301,1.0,1.0,92,0.00,,,0.00,weatherlink.com 1.10,2013-05-06 13:09:00,
2013-05-06 06:24:00,48.6,46.0,29.83,West,266,0.0,0.0,91,0.00,,,0.00,weatherlink.com 1.10,2013-05-06 13:24:00,
2013-05-06 06:39:00,48.5,46.0,29.83,ESE,117,1.0,2.0,92,0.00,,,0.00,weatherlink.com 1.10,2013-05-06 13:39:00,
2013-05-06 06:54:00,48.4,46.0,29.84,ESE,117,0.0,2.0,91,0.00,,,0.00,weatherlink.com 1.10,2013-05-06 13:54:00,
2013-05-06 07:09:00,48.4,46.0,29.85,SSW,211,0.0,0.0,92,0.00,,,0.00,weatherlink.com 1.10,2013-05-06 14:09:00,
2013-05-06 07:25:00,48.5,46.0,29.85,SSW,212,0.0,0.0,92,0.00,,,0.00,weatherlink.com 1.10,2013-05-06 14:25:00,
2013-05-06 07:40:00,49.1,47.0,29.85,West,270,0.0,0.0,92,0.00,,,0.00,weatherlink.com 1.10,2013-05-06 14:40:00,
2013-05-06 07:55:00,49.9,48.0,29.86,West,271,0.0,1.0,92,0.00,,,0.00,weatherlink.com 1.10,2013-05-06 14:55:00,
2013-05-06 08:10:00,51.1,49.0,29.86,WNW,288,0.0,0.0,92,0.00,,,0.00,weatherlink.com 1.10,2013-05-06 15:10:00,
2013-05-06 08:25:00,52.5,50.0,29.86,WNW,288,0.0,1.0,90,0.00,,,0.00,weatherlink.com 1.10,2013-05-06 15:25:00,
2013-05-06 08:40:00,53.7,50.0,29.86,NNW,327,1.0,3.0,88,0.00,,,0.00,weatherlink.com 1.10,2013-05-06 15:40:00,
2013-05-06 08:55:00,55.1,51.0,29.87,NNW,327,0.0,3.0,86,0.00,,,0.00,weatherlink.com 1.10,2013-05-06 15:55:00,
2013-05-06 09:10:00,56.4,51.0,29.87,NNW,327,1.0,2.0,82,0.00,,,0.00,weatherlink.com 1.10,2013-05-06 16:10:00,
2013-05-06 09:25:00,57.4,51.0,29.88,NW,326,1.0,3.0,79,0.00,,,0.00,weatherlink.com 1.10,2013-05-06 16:25:00,
2013-05-06 09:40:00,58.4,51.0,29.88,NW,325,0.0,2.0,77,0.00,,,0.00,weatherlink.com 1.10,2013-05-06 16:40:00,
2013-05-06 09:55:00,59.5,52.0,29.88,NW,319,0.0,3.0,76,0.00,,,0.00,weatherlink.com 1.10,2013-05-06 16:55:00,
2013-05-06 10:10:00,60.8,52.0,29.88,West,274,2.0,4.0,74,0.00,,,0.00,weatherlink.com 1.10,2013-05-06 17:10:00,
2013-05-06 10:25:00,61.4,52.0,29.88,West,272,1.0,2.0,71,0.00,,,0.00,weatherlink.com 1.10,2013-05-06 17:25:00,
2013-05-06 10:40:00,62.1,51.0,29.88,SSE,155,2.0,6.0,68,0.00,,,0.00,weatherlink.com 1.10,2013-05-06 17:40:00,
2013-05-06 10:55:00,62.6,51.0,29.88,SSE,155,0.0,6.0,66,0.00,,,0.00,weatherlink.com 1.10,2013-05-06 17:55:00,
2013-05-06 11:10:00,63.2,51.0,29.89,East,93,5.0,5.0,64,0.00,,,0.00,weatherlink.com 1.10,2013-05-06 18:10:00,
2013-05-06 11:25:00,63.4,50.0,29.89,NNE,24,1.0,5.0,63,0.00,,,0.00,weatherlink.com 1.10,2013-05-06 18:25:00,
2013-05-06 11:40:00,64.1,52.0,29.89,ESE,119,3.0,6.0,64,0.00,,,0.00,weatherlink.com 1.10,2013-05-06 18:40:00,
2013-05-06 11:55:00,65.1,52.0,29.89,SE,129,0.0,4.0,63,0.00,,,0.00,weatherlink.com 1.10,2013-05-06 18:55:00,
2013-05-06 12:10:00,65.8,52.0,29.89,SE,138,0.0,5.0,62,0.00,,,0.00,weatherlink.com 1.10,2013-05-06 19:10:00,
2013-05-06 12:25:00,66.1,51.0,29.88,ESE,103,1.0,7.0,58,0.00,,,0.00,weatherlink.com 1.10,2013-05-06 19:25:00,
2013-05-06 12:40:00,66.3,51.0,29.88,SE,136,0.0,6.0,58,0.00,,,0.00,weatherlink.com 1.10,2013-05-06 19:40:00,
2013-05-06 12:55:00,66.6,51.0,29.88,SSE,148,4.0,5.0,58,0.00,,,0.00,weatherlink.com 1.10,2013-05-06 19:55:00,
2013-05-06 13:10:00,66.4,51.0,29.88,SSE,158,2.0,4.0,57,0.00,,,0.00,weatherlink.com 1.10,2013-05-06 20:10:00,
2013-05-06 13:24:00,65.9,53.0,29.88,SE,128,2.0,5.0,63,0.00,,,0.00,weatherlink.com 1.10,2013-05-06 20:24:00,
2013-05-06 13:40:00,66.1,54.0,29.88,SE,138,5.0,5.0,65,0.00,,,0.00,weatherlink.com 1.10,2013-05-06 20:40:00,
2013-05-06 13:55:00,66.8,53.0,29.88,SSW,206,2.0,4.0,62,0.00,,,0.00,weatherlink.com 1.10,2013-05-06 20:55:00,
2013-05-06 14:10:00,66.9,51.0,29.88,SSW,205,2.0,7.0,56,0.00,,,0.00,weatherlink.com 1.10,2013-05-06 21:10:00,
2013-05-06 14:25:00,67.1,50.0,29.89,WSW,250,0.0,7.0,54,0.00,,,0.00,weatherlink.com 1.10,2013-05-06 21:25:00,
2013-05-06 14:41:00,66.9,50.0,29.88,South,183,6.0,6.0,55,0.00,,,0.00,weatherlink.com 1.10,2013-05-06 21:41:00,
2013-05-06 14:55:00,67.1,49.0,29.88,ESE,120,4.0,6.0,53,0.00,,,0.00,weatherlink.com 1.10,2013-05-06 21:55:00,
2013-05-06 15:10:00,67.7,50.0,29.88,SE,145,7.0,11.0,54,0.00,,,0.00,weatherlink.com 1.10,2013-05-06 22:10:00,
2013-05-06 15:37:00,67.6,50.0,29.87,SE,128,4.0,10.0,53,0.00,,,0.00,weatherlink.com 1.10,2013-05-06 22:37:00,
2013-05-06 15:56:00,68.3,50.0,29.87,South,186,5.0,7.0,52,0.00,,,0.00,weatherlink.com 1.10,2013-05-06 22:56:00,
2013-05-06 16:45:00,-999.0,-99.9,0.00,North,-999,-999.0,-999.0,-999,0.00,,,0.00,weatherlink.com 1.10,2013-05-06 23:45:00,
2013-05-06 16:59:00,65.0,49.0,29.88,SSE,153,2.0,7.0,57,0.00,,,0.00,weatherlink.com 1.10,2013-05-06 23:59:00,
2013-05-06 17:15:00,63.9,49.0,29.88,NE,52,2.0,8.0,58,0.00,,,0.00,weatherlink.com 1.10,2013-05-07 00:15:00,
2013-05-06 17:30:00,63.1,48.0,29.89,East,90,1.0,5.0,59,0.00,,,0.00,weatherlink.com 1.10,2013-05-07 00:30:00,
2013-05-06 17:45:00,62.5,48.0,29.89,SE,134,2.0,6.0,60,0.00,,,0.00,weatherlink.com 1.10,2013-05-07 00:45:00,
2013-05-06 18:00:00,62.4,48.0,29.89,SSW,213,0.0,5.0,60,0.00,,,0.00,weatherlink.com 1.10,2013-05-07 01:00:00,
2013-05-06 18:15:00,62.4,48.0,29.89,SW,221,1.0,6.0,60,0.00,,,0.00,weatherlink.com 1.10,2013-05-07 01:15:00,
2013-05-06 18:30:00,62.4,48.0,29.89,SE,124,1.0,3.0,60,0.00,,,0.00,weatherlink.com 1.10,2013-05-07 01:30:00,
2013-05-06 18:45:00,62.2,48.0,29.88,NNW,330,0.0,4.0,61,0.00,,,0.00,weatherlink.com 1.10,2013-05-07 01:45:00,
2013-05-06 19:00:00,61.6,50.0,29.89,SW,234,1.0,6.0,65,0.00,,,0.00,weatherlink.com 1.10,2013-05-07 02:00:00,
2013-05-06 19:15:00,61.2,50.0,29.89,SE,136,1.0,5.0,67,0.00,,,0.00,weatherlink.com 1.10,2013-05-07 02:15:00,
2013-05-06 19:30:00,60.6,51.0,29.89,SW,225,0.0,3.0,70,0.00,,,0.00,weatherlink.com 1.10,2013-05-07 02:30:00,
2013-05-06 19:45:00,59.9,50.0,29.90,South,190,1.0,3.0,71,0.00,,,0.00,weatherlink.com 1.10,2013-05-07 02:45:00,
2013-05-06 20:00:00,59.2,51.0,29.90,South,191,0.0,1.0,74,0.00,,,0.00,weatherlink.com 1.10,2013-05-07 03:00:00,
2013-05-06 20:15:00,58.1,51.0,29.91,South,191,0.0,1.0,76,0.00,,,0.00,weatherlink.com 1.10,2013-05-07 03:15:00,
2013-05-06 20:30:00,57.4,51.0,29.92,South,190,0.0,0.0,78,0.00,,,0.00,weatherlink.com 1.10,2013-05-07 03:30:00,
2013-05-06 20:45:00,57.0,51.0,29.93,South,190,0.0,1.0,79,0.00,,,0.00,weatherlink.com 1.10,2013-05-07 03:45:00,
2013-05-06 21:00:00,57.0,51.0,29.93,South,190,0.0,1.0,81,0.00,,,0.00,weatherlink.com 1.10,2013-05-07 04:00:00,
2013-05-06 21:15:00,57.2,51.0,29.95,South,190,0.0,1.0,79,0.00,,,0.00,weatherlink.com 1.10,2013-05-07 04:15:00,
2013-05-06 21:30:00,57.5,51.0,29.95,South,191,0.0,0.0,79,0.00,,,0.00,weatherlink.com 1.10,2013-05-07 04:30:00,
2013-05-06 21:45:00,57.3,51.0,29.95,South,190,0.0,1.0,79,0.00,,,0.00,weatherlink.com 1.10,2013-05-07 04:45:00,
2013-05-06 22:00:00,56.4,51.0,29.95,South,190,0.0,0.0,81,0.00,,,0.00,weatherlink.com 1.10,2013-05-07 05:00:00,
2013-05-06 22:15:00,55.6,50.0,29.96,South,190,0.0,0.0,82,0.00,,,0.00,weatherlink.com 1.10,2013-05-07 05:15:00,
2013-05-06 22:30:00,55.1,50.0,29.96,South,190,0.0,0.0,83,0.00,,,0.00,weatherlink.com 1.10,2013-05-07 05:30:00,
2013-05-06 22:45:00,54.4,50.0,29.97,South,190,0.0,0.0,84,0.00,,,0.00,weatherlink.com 1.10,2013-05-07 05:45:00,
2013-05-06 23:00:00,53.5,50.0,29.97,South,190,0.0,0.0,86,0.00,,,0.00,weatherlink.com 1.10,2013-05-07 06:00:00,
2013-05-06 23:15:00,52.8,49.0,29.97,South,190,0.0,0.0,86,0.00,,,0.00,weatherlink.com 1.10,2013-05-07 06:15:00,
2013-05-06 23:30:00,52.1,49.0,29.97,South,190,0.0,0.0,88,0.00,,,0.00,weatherlink.com 1.10,2013-05-07 06:30:00,
2013-05-06 23:45:00,51.7,48.0,29.98,South,191,0.0,0.0,88,0.00,,,0.00,weatherlink.com 1.10,2013-05-07 06:45:00,